Time;durP1;ratioP1;P1;durP2;ratioP2;P2;SDS_P1;SDS_P2;PMS_P1;PMS_P2;Temp;Humidity;BMP_temperature;BMP_pressure;BME280_temperature;BME280_humidity;BME280_pressure;Samples;Min_cycle;Max_cycle;Signal;HPM_P1;HPM_P2
2021/05/15 00:00:38;;;;;;;3.00;1.83;;;11.20;99.90;;;10.62;100.00;100188.78;4151450;28;20037;-71
2021/05/15 00:02:39;;;;;;;3.30;1.30;;;11.30;99.90;;;10.61;100.00;100185.31;4151287;28;20053;-71
2021/05/15 00:04:39;;;;;;;4.35;1.58;;;11.30;99.90;;;10.79;100.00;100187.72;4168145;28;20026;-71
2021/05/15 00:06:41;;;;;;;4.13;1.00;;;11.30;99.90;;;10.90;100.00;100188.16;4152816;28;20026;-71
2021/05/15 00:08:42;;;;;;;5.90;1.10;;;11.40;99.90;;;10.89;100.00;100168.06;4152611;28;20040;-71
2021/05/15 00:10:42;;;;;;;3.70;1.23;;;11.40;99.90;;;10.91;100.00;100154.69;4138325;28;20467;-71
2021/05/15 00:12:44;;;;;;;2.83;1.35;;;11.50;99.90;;;10.73;100.00;100154.13;4135355;28;20135;-71
2021/05/15 00:14:45;;;;;;;1.70;1.10;;;11.40;99.90;;;10.84;100.00;100165.09;4135070;28;20030;-71
2021/05/15 00:16:46;;;;;;;4.13;1.27;;;11.50;99.90;;;10.88;100.00;100160.31;4135129;28;20057;-71
2021/05/15 00:18:47;;;;;;;3.67;1.15;;;11.50;99.90;;;10.84;100.00;100161.66;4151270;28;20056;-71
2021/05/15 00:20:48;;;;;;;5.93;1.05;;;11.50;99.90;;;10.91;100.00;100166.06;4135264;28;20065;-71
2021/05/15 00:22:50;;;;;;;2.42;1.00;;;11.50;99.90;;;10.98;100.00;100143.28;4135186;28;20493;-71
2021/05/15 00:24:50;;;;;;;6.40;1.27;;;11.60;99.90;;;10.99;100.00;100150.19;4136319;28;20034;-71
2021/05/15 00:26:51;;;;;;;5.75;1.60;;;11.60;99.90;;;10.97;100.00;100140.81;4134962;28;20409;-71
2021/05/15 00:28:53;;;;;;;2.60;1.08;;;11.60;99.90;;;11.04;100.00;100129.41;4136202;28;20038;-71
2021/05/15 00:30:54;;;;;;;3.03;1.02;;;11.60;99.90;;;11.10;100.00;100130.53;4135543;28;20045;-71
2021/05/15 00:32:55;;;;;;;4.60;1.20;;;11.70;99.90;;;11.13;100.00;100130.19;4136114;28;20121;-71
2021/05/15 00:34:56;;;;;;;3.20;1.15;;;11.80;99.90;;;11.10;100.00;100115.50;4136191;28;20486;-71
2021/05/15 00:36:57;;;;;;;6.53;1.30;;;11.70;99.90;;;11.21;100.00;100106.34;4135128;28;20042;-71
2021/05/15 00:38:58;;;;;;;5.10;1.50;;;11.80;99.90;;;11.31;100.00;100090.28;4136184;28;20066;-71
2021/05/15 00:40:59;;;;;;;7.35;1.63;;;11.80;99.90;;;11.33;100.00;100083.00;4136204;28;20031;-71
2021/05/15 00:43:00;;;;;;;6.03;1.65;;;11.90;99.90;;;11.23;100.00;100103.56;4136151;28;20068;-71
2021/05/15 00:45:01;;;;;;;4.65;1.60;;;11.90;99.90;;;11.26;100.00;100095.28;4135971;28;20046;-71
2021/05/15 00:47:02;;;;;;;5.18;1.77;;;12.00;99.90;;;11.23;100.00;100090.34;4136106;28;20029;-71
2021/05/15 00:49:04;;;;;;;4.20;1.88;;;11.90;99.90;;;11.26;100.00;100088.16;4134908;28;20030;-71
2021/05/15 00:51:05;;;;;;;6.78;1.30;;;12.00;99.90;;;11.39;100.00;100100.78;4136172;28;20030;-71
2021/05/15 00:53:07;;;;;;;6.55;1.38;;;12.00;99.90;;;11.34;100.00;100074.09;4136074;28;20042;-71
2021/05/15 00:55:14;;;;;;;3.80;1.85;;;12.10;99.90;;;11.44;100.00;100077.31;4135031;28;20421;-71
2021/05/15 00:57:16;;;;;;;4.53;1.33;;;12.00;99.90;;;11.50;100.00;100069.47;4134669;28;20054;-71
2021/05/15 00:59:16;;;;;;;5.80;1.30;;;12.10;99.90;;;11.64;100.00;100076.66;4134386;28;20026;-71
2021/05/15 01:01:17;;;;;;;3.42;1.15;;;12.20;99.90;;;11.67;100.00;100067.53;4135867;28;20043;-71
2021/05/15 01:03:18;;;;;;;5.43;1.58;;;12.20;99.90;;;11.72;100.00;100067.84;4141795;28;20081;-71
2021/05/15 01:05:20;;;;;;;8.20;1.80;;;12.30;99.90;;;11.62;100.00;100054.03;4146252;28;20025;-71
2021/05/15 01:07:21;;;;;;;4.50;1.98;;;12.30;99.90;;;11.59;100.00;100057.03;4151030;28;20018;-71
2021/05/15 01:09:22;;;;;;;7.20;1.92;;;12.30;99.90;;;11.73;100.00;100058.09;4134477;28;20041;-71
2021/05/15 01:11:22;;;;;;;8.43;2.25;;;12.30;99.90;;;11.68;100.00;100050.66;4135929;28;20478;-71
2021/05/15 01:13:42;;;;;;;10.57;2.25;;;12.40;99.90;;;11.79;100.00;100071.41;4135794;28;20027;-71
2021/05/15 01:15:43;;;;;;;9.10;1.92;;;12.40;99.90;;;11.79;100.00;100076.69;4135616;28;20058;-71
2021/05/15 01:17:56;;;;;;;9.52;2.47;;;12.40;99.90;;;11.80;100.00;100059.81;4135833;28;20045;-71
2021/05/15 01:19:57;;;;;;;7.47;2.65;;;12.50;99.90;;;11.81;100.00;100056.19;4135704;28;20027;-71
2021/05/15 01:21:58;;;;;;;20.70;3.60;;;12.50;99.90;;;11.85;100.00;100051.38;4135715;28;20026;-71
2021/05/15 01:23:59;;;;;;;15.18;3.15;;;12.50;99.90;;;11.86;100.00;100055.63;4135801;28;20033;-71
2021/05/15 01:26:18;;;;;;;17.45;3.65;;;12.50;99.90;;;11.95;100.00;100050.09;4134504;28;20027;-71
2021/05/15 01:28:19;;;;;;;9.15;2.97;;;12.50;99.90;;;11.98;100.00;100041.78;4135669;28;20026;-71
2021/05/15 01:30:21;;;;;;;14.70;3.60;;;12.60;99.90;;;12.03;100.00;100042.09;4134150;28;20497;-71
2021/05/15 01:32:22;;;;;;;22.23;4.47;;;12.60;99.90;;;12.03;100.00;100050.03;4135579;28;20055;-71
2021/05/15 01:34:23;;;;;;;19.58;4.82;;;12.70;99.90;;;12.05;100.00;100036.59;4135807;28;20057;-71
2021/05/15 01:36:25;;;;;;;12.27;3.55;;;12.70;99.90;;;12.02;100.00;100043.09;4135814;28;20026;-71
2021/05/15 01:38:27;;;;;;;16.58;3.92;;;12.60;99.90;;;11.87;100.00;100021.13;4135735;28;20490;-71
2021/05/15 01:40:28;;;;;;;20.75;5.25;;;12.60;99.90;;;12.00;100.00;100023.13;4135824;28;20030;-71
2021/05/15 01:42:29;;;;;;;15.38;3.95;;;12.60;99.90;;;12.16;100.00;100029.03;4137169;28;20050;-71
2021/05/15 01:44:31;;;;;;;22.42;5.18;;;12.70;99.90;;;12.05;100.00;100034.78;4138580;28;20053;-71
2021/05/15 01:46:32;;;;;;;15.70;4.35;;;12.70;99.90;;;12.03;100.00;100042.09;4138813;28;20481;-71
2021/05/15 01:48:34;;;;;;;16.33;5.13;;;12.70;99.90;;;12.07;100.00;100035.41;4137717;28;20034;-71
2021/05/15 01:50:35;;;;;;;19.10;5.15;;;12.60;99.90;;;12.14;100.00;100051.38;4138789;28;20038;-71
2021/05/15 01:52:36;;;;;;;21.95;4.90;;;12.70;99.90;;;12.15;100.00;100045.94;4138659;28;20393;-71
2021/05/15 01:54:37;;;;;;;23.30;4.85;;;12.70;99.90;;;12.21;100.00;100058.38;4138755;28;20034;-71
2021/05/15 01:56:38;;;;;;;26.27;6.95;;;12.70;99.90;;;12.31;100.00;100070.50;4137459;28;20029;-71
2021/05/15 01:58:40;;;;;;;24.02;6.00;;;12.80;99.90;;;11.90;100.00;100044.53;4138347;28;20125;-71
2021/05/15 02:00:41;;;;;;;32.63;7.10;;;12.80;99.90;;;11.81;100.00;100071.22;4138578;28;20022;-70
2021/05/15 02:02:42;;;;;;;32.78;6.50;;;12.70;99.90;;;11.80;100.00;100061.69;4140497;28;20089;-71
2021/05/15 02:04:43;;;;;;;28.85;7.18;;;12.60;99.90;;;11.92;100.00;100060.19;4149381;28;20034;-70
2021/05/15 02:06:44;;;;;;;28.88;6.65;;;12.50;99.90;;;11.75;100.00;100059.56;4138498;28;20121;-71
2021/05/15 02:08:46;;;;;;;38.25;9.18;;;12.50;99.90;;;11.71;100.00;100074.13;4140192;28;20393;-71
2021/05/15 02:10:49;;;;;;;28.05;7.68;;;12.40;99.90;;;11.72;100.00;100072.31;4139488;28;20027;-71
2021/05/15 02:12:50;;;;;;;32.17;6.70;;;12.40;99.90;;;11.56;100.00;100071.41;4138436;28;20030;-71
2021/05/15 02:14:51;;;;;;;30.60;7.32;;;12.40;99.90;;;11.67;100.00;100075.47;4138195;28;20045;-71
2021/05/15 02:16:51;;;;;;;25.63;6.72;;;12.30;99.90;;;11.68;100.00;100063.09;4138479;28;20386;-71
2021/05/15 02:18:52;;;;;;;32.60;6.85;;;12.30;99.90;;;11.48;100.00;100060.09;4138163;28;20065;-71
2021/05/15 02:20:54;;;;;;;30.75;6.82;;;12.20;99.90;;;11.41;100.00;100059.19;4138363;28;20030;-71
2021/05/15 02:22:56;;;;;;;33.30;7.55;;;12.10;99.90;;;11.39;100.00;100061.16;4138494;28;20386;-71
2021/05/15 02:24:57;;;;;;;29.23;7.78;;;12.00;99.90;;;11.36;100.00;100061.53;4138275;28;20029;-71
2021/05/15 02:26:58;;;;;;;34.20;7.45;;;12.00;99.90;;;11.46;100.00;100060.28;4138093;28;20030;-71
2021/05/15 02:28:59;;;;;;;30.83;7.88;;;12.00;99.90;;;11.44;100.00;100050.91;4138103;28;20030;-71
2021/05/15 02:31:00;;;;;;;35.28;9.07;;;12.00;99.90;;;11.43;100.00;100057.19;4136966;28;20504;-71
2021/05/15 02:33:03;;;;;;;39.33;8.02;;;12.00;99.90;;;11.25;100.00;100054.03;4137012;28;20069;-71
2021/05/15 02:35:05;;;;;;;40.80;8.75;;;11.80;99.90;;;11.31;100.00;100058.59;4136875;28;20062;-71
2021/05/15 02:37:06;;;;;;;25.67;7.47;;;11.90;99.90;;;11.32;100.00;100057.63;4138340;28;20023;-71
2021/05/15 02:39:07;;;;;;;24.73;6.10;;;11.80;99.90;;;11.35;100.00;100065.19;4138038;28;20030;-71
2021/05/15 02:41:08;;;;;;;40.80;8.18;;;11.80;99.90;;;11.27;100.00;100050.22;4138051;28;20022;-71
2021/05/15 02:43:09;;;;;;;31.25;7.70;;;11.80;99.90;;;11.15;100.00;100037.59;4136769;28;20027;-71
2021/05/15 02:45:13;;;;;;;46.72;8.10;;;11.80;99.90;;;11.07;100.00;100056.97;4136604;28;20160;-71
2021/05/15 02:47:14;;;;;;;31.10;6.93;;;11.80;99.90;;;11.13;100.00;100053.63;4136822;28;20026;-71
2021/05/15 02:49:15;;;;;;;44.05;8.80;;;11.70;99.90;;;11.16;100.00;100052.44;4137857;28;20041;-71
2021/05/15 02:51:15;;;;;;;31.13;8.13;;;11.70;99.90;;;11.32;100.00;100060.25;4136516;28;20057;-71
2021/05/15 02:53:18;;;;;;;36.33;6.93;;;11.70;99.90;;;11.31;100.00;100056.78;4137340;28;20057;-71
2021/05/15 02:55:23;;;;;;;40.40;8.05;;;11.70;99.90;;;11.18;100.00;100055.72;4137382;28;20026;-71
2021/05/15 02:57:23;;;;;;;33.25;10.13;;;11.70;99.90;;;11.25;100.00;100056.66;4136582;28;20065;-71
2021/05/15 02:59:24;;;;;;;36.28;7.05;;;11.70;99.90;;;11.26;100.00;100055.69;4137245;28;20034;-71
2021/05/15 03:01:25;;;;;;;39.47;8.95;;;11.70;99.90;;;11.20;100.00;100056.38;4136291;28;20402;-71
2021/05/15 03:03:26;;;;;;;39.53;7.20;;;11.60;99.90;;;11.19;100.00;100057.38;4161036;28;20064;-71
2021/05/15 03:05:28;;;;;;;32.03;8.35;;;11.60;99.90;;;11.21;100.00;100052.72;4141152;28;20026;-71
2021/05/15 03:07:29;;;;;;;33.45;7.80;;;11.60;99.90;;;11.17;100.00;100051.47;4137461;28;20109;-71
2021/05/15 03:09:30;;;;;;;35.03;7.40;;;11.60;99.90;;;11.20;100.00;100062.47;4140497;28;20033;-71
2021/05/15 03:11:31;;;;;;;29.50;6.57;;;11.60;99.90;;;11.32;100.00;100074.25;4137530;28;20490;-71
2021/05/15 03:13:32;;;;;;;37.47;8.23;;;11.60;99.90;;;11.35;100.00;100070.47;4135954;28;20080;-71
2021/05/15 03:15:33;;;;;;;32.70;9.25;;;11.70;99.90;;;11.30;100.00;100063.06;4137352;28;20019;-71
2021/05/15 03:17:35;;;;;;;37.10;8.85;;;11.70;99.90;;;11.31;100.00;100058.59;4137398;28;20037;-71
2021/05/15 03:19:36;;;;;;;33.78;7.07;;;11.70;99.90;;;11.24;100.00;100053.19;4137405;28;20048;-71
2021/05/15 03:21:37;;;;;;;38.15;6.57;;;11.70;99.90;;;11.30;100.00;100056.94;4137517;28;20425;-71
2021/05/15 03:23:38;;;;;;;30.02;7.28;;;11.70;99.90;;;11.20;100.00;100037.91;4137251;28;20393;-71
2021/05/15 03:25:39;;;;;;;36.33;7.82;;;11.70;99.90;;;11.11;100.00;100045.88;4137335;28;20037;-71
2021/05/15 03:27:40;;;;;;;32.15;7.38;;;11.60;99.90;;;11.10;100.00;100031.06;4136086;28;20469;-71
2021/05/15 03:29:42;;;;;;;31.45;6.32;;;11.60;99.90;;;11.11;100.00;100035.31;4135845;28;20429;-71
2021/05/15 03:31:43;;;;;;;38.38;8.68;;;11.60;99.90;;;11.24;100.00;100031.25;4137075;28;20117;-71
2021/05/15 03:33:44;;;;;;;32.97;7.25;;;11.70;99.90;;;11.26;100.00;100030.06;4137167;28;20500;-71
2021/05/15 03:35:45;;;;;;;34.17;8.40;;;11.70;99.90;;;11.37;100.00;100042.06;4137167;28;20552;-71
2021/05/15 03:37:46;;;;;;;32.13;7.90;;;11.70;99.90;;;11.40;100.00;100039.06;4137108;28;20029;-71
2021/05/15 03:39:47;;;;;;;32.92;7.15;;;11.70;99.90;;;11.41;100.00;100038.84;4136998;28;20034;-71
2021/05/15 03:41:48;;;;;;;34.20;7.65;;;11.80;99.90;;;11.43;100.00;100036.06;4137183;28;20038;-71
2021/05/15 03:43:49;;;;;;;39.63;9.02;;;11.90;99.90;;;11.44;100.00;100027.16;4136851;28;20076;-70
2021/05/15 03:45:51;;;;;;;32.40;6.78;;;11.90;99.90;;;11.46;100.00;100043.63;4136992;28;20026;-71
2021/05/15 03:47:52;;;;;;;36.58;8.40;;;11.90;99.90;;;11.50;100.00;100048.34;4136780;28;20034;-71
2021/05/15 03:49:53;;;;;;;34.08;7.05;;;11.90;99.90;;;11.42;100.00;100029.13;4136995;28;20031;-71
2021/05/15 03:51:54;;;;;;;29.60;7.30;;;12.00;99.90;;;11.47;100.00;100038.16;4137067;28;20061;-71
2021/05/15 03:53:55;;;;;;;35.97;8.07;;;12.00;99.90;;;11.57;100.00;100041.38;4136885;28;20026;-71
2021/05/15 03:55:56;;;;;;;35.38;7.15;;;12.00;99.90;;;11.73;100.00;100036.97;4135491;28;20065;-71
2021/05/15 03:57:56;;;;;;;34.85;7.38;;;12.10;99.90;;;11.65;100.00;100035.16;4136611;28;20037;-71
2021/05/15 03:59:57;;;;;;;30.35;7.95;;;12.10;99.90;;;11.62;100.00;100032.88;4136619;28;20026;-71
2021/05/15 04:01:58;;;;;;;33.58;7.03;;;12.10;99.90;;;11.59;100.00;100022.69;4136324;28;20038;-71
2021/05/15 04:03:59;;;;;;;33.80;6.60;;;12.10;99.90;;;11.62;100.00;100022.31;4148182;28;20069;-71
2021/05/15 04:06:00;;;;;;;46.35;8.77;;;12.20;99.90;;;11.60;100.00;100019.06;4135751;28;20030;-71
2021/05/15 04:08:01;;;;;;;38.72;9.32;;;12.20;99.90;;;11.58;100.00;100029.00;4151671;28;20026;-71
2021/05/15 04:10:03;;;;;;;34.65;8.75;;;12.20;99.90;;;11.71;100.00;100033.69;4154608;28;20026;-71
2021/05/15 04:12:05;;;;;;;35.35;8.25;;;12.20;99.90;;;11.69;100.00;100036.47;4136506;28;20084;-71
2021/05/15 04:16:46;;;;;;;41.72;9.00;;;12.20;99.90;;;11.72;100.00;100035.31;4135450;28;20041;-71
2021/05/15 04:18:48;;;;;;;33.92;9.32;;;12.30;99.90;;;11.68;100.00;100042.75;4136349;28;20033;-71
2021/05/15 04:20:49;;;;;;;38.00;7.47;;;12.20;99.90;;;11.61;100.00;100031.28;4135230;28;20027;-71
2021/05/15 04:22:50;;;;;;;44.70;8.98;;;12.10;99.90;;;11.71;100.00;100038.97;4136466;28;20022;-71
2021/05/15 04:24:51;;;;;;;39.55;7.63;;;12.10;99.90;;;11.56;100.00;100034.44;4135215;28;20058;-70
2021/05/15 04:26:59;;;;;;;38.83;8.73;;;12.10;99.90;;;11.61;100.00;100023.34;4134934;28;20113;-70
2021/05/15 04:29:00;;;;;;;46.03;10.70;;;12.10;99.90;;;11.57;100.00;100049.28;4136279;28;20413;-71
2021/05/15 04:31:02;;;;;;;42.45;8.60;;;12.10;99.90;;;11.50;100.00;100047.53;4135100;28;20034;-71
2021/05/15 04:33:03;;;;;;;40.33;10.10;;;12.10;99.90;;;11.54;100.00;100048.81;4136186;28;20524;-71
2021/05/15 04:35:05;;;;;;;46.90;9.43;;;12.10;99.90;;;11.47;100.00;100061.09;4134847;28;20093;-71
2021/05/15 04:37:06;;;;;;;45.65;9.68;;;12.10;99.90;;;11.42;100.00;100051.06;4134898;28;20042;-71
2021/05/15 04:39:07;;;;;;;40.13;9.82;;;12.10;99.90;;;11.38;100.00;100043.69;4151235;28;20514;-71
2021/05/15 04:41:08;;;;;;;47.20;10.43;;;12.00;99.90;;;11.50;100.00;100047.53;4134990;28;20050;-71
2021/05/15 04:43:09;;;;;;;47.47;10.20;;;12.00;99.90;;;11.19;100.00;100039.72;4134836;28;20030;-71
2021/05/15 04:45:14;;;;;;;51.92;11.75;;;12.00;99.90;;;11.16;100.00;100036.59;4134762;28;20041;-71
2021/05/15 04:47:14;;;;;;;56.08;11.00;;;11.90;99.90;;;11.33;100.00;100057.41;4134982;28;20545;-71
2021/05/15 04:49:16;;;;;;;45.88;8.63;;;11.90;99.90;;;11.19;100.00;100054.72;4135995;28;20088;-71
2021/05/15 04:51:17;;;;;;;47.80;9.93;;;11.90;99.90;;;11.11;100.00;100052.97;4118486;28;20085;-71
2021/05/15 04:53:18;;;;;;;47.35;9.50;;;11.80;99.90;;;10.96;100.00;100060.81;4136121;28;20034;-70
2021/05/15 04:55:19;;;;;;;46.97;9.95;;;11.80;99.90;;;11.20;100.00;100061.66;4134874;28;20027;-70
2021/05/15 04:57:20;;;;;;;39.03;9.15;;;11.80;99.90;;;11.05;100.00;100065.03;4135946;28;20079;-70
2021/05/15 04:59:21;;;;;;;44.25;10.02;;;11.80;99.90;;;10.99;100.00;100065.75;4135512;28;20026;-71
2021/05/15 05:01:22;;;;;;;49.17;9.45;;;11.70;99.90;;;10.99;100.00;100065.75;4135805;28;20456;-71
2021/05/15 05:03:24;;;;;;;53.97;12.10;;;11.70;99.90;;;10.98;100.00;100079.13;4143681;28;20069;-70
2021/05/15 05:05:25;;;;;;;43.45;8.32;;;11.60;99.90;;;10.92;100.00;100078.00;4152229;28;20030;-70
2021/05/15 05:07:26;;;;;;;43.50;10.55;;;11.60;99.90;;;10.78;100.00;100070.81;4151931;28;20033;-70
2021/05/15 05:09:26;;;;;;;46.75;9.88;;;11.60;99.90;;;10.71;100.00;100061.16;4147791;28;20124;-70
2021/05/15 05:11:27;;;;;;;43.00;11.60;;;11.60;99.90;;;10.79;100.00;100080.38;4134724;28;20026;-70
2021/05/15 05:13:28;;;;;;;53.45;9.88;;;11.50;99.90;;;10.84;100.00;100067.50;4135649;28;20081;-70
2021/05/15 05:15:29;;;;;;;49.33;10.00;;;11.50;99.90;;;10.89;100.00;100086.28;4134546;28;20077;-70
2021/05/15 05:17:30;;;;;;;47.35;10.45;;;11.50;99.90;;;10.83;100.00;100086.97;4136235;28;20030;-70
2021/05/15 05:19:31;;;;;;;43.67;9.68;;;11.50;99.90;;;10.84;100.00;100078.03;4139139;28;20022;-70
2021/05/15 05:21:32;;;;;;;52.60;9.90;;;11.50;99.90;;;10.88;100.00;100074.06;4139029;28;20058;-70
2021/05/15 05:23:33;;;;;;;41.72;8.77;;;11.60;99.90;;;10.96;100.00;100075.84;4137672;28;20081;-71
2021/05/15 05:25:34;;;;;;;53.35;10.18;;;11.60;99.90;;;11.03;100.00;100088.16;4139173;28;20026;-70
2021/05/15 05:27:35;;;;;;;49.15;9.85;;;11.70;99.90;;;10.95;100.00;100085.59;4139054;28;20524;-70
2021/05/15 05:29:36;;;;;;;37.60;10.23;;;11.70;99.90;;;10.92;100.00;100079.81;4137589;28;20405;-70
2021/05/15 05:31:43;;;;;;;33.97;8.18;;;11.70;99.90;;;11.01;100.00;100084.06;4137718;28;20038;-70
2021/05/15 05:33:45;;;;;;;43.53;9.55;;;11.70;99.90;;;11.21;100.00;100094.97;4138895;28;20042;-71
2021/05/15 05:35:47;;;;;;;40.75;10.38;;;11.80;99.90;;;10.94;100.00;100091.84;4137741;28;20078;-70
2021/05/15 05:37:49;;;;;;;45.08;8.38;;;11.80;99.90;;;11.03;100.00;100104.00;4138745;28;20034;-71
2021/05/15 05:39:51;;;;;;;44.35;9.68;;;11.80;99.90;;;11.04;100.00;100105.66;4137434;28;20084;-70
2021/05/15 05:41:51;;;;;;;46.72;9.70;;;11.80;99.90;;;11.04;100.00;100103.00;4138958;28;20018;-71
2021/05/15 05:43:53;;;;;;;40.88;9.68;;;11.80;99.90;;;11.13;100.00;100116.16;4137480;28;20584;-71
2021/05/15 05:45:54;;;;;;;43.50;9.27;;;11.90;99.90;;;10.93;100.00;100127.13;4137585;28;20433;-71
2021/05/15 05:47:55;;;;;;;44.75;9.23;;;11.90;99.90;;;11.09;100.00;100129.69;4137403;28;20041;-70
2021/05/15 05:49:56;;;;;;;40.88;9.18;;;11.90;99.90;;;11.20;100.00;100119.75;4138873;28;20038;-70
2021/05/15 05:51:57;;;;;;;56.13;10.77;;;12.00;99.90;;;11.03;100.00;100129.56;4137596;28;20152;-71
2021/05/15 05:53:58;;;;;;;44.55;10.88;;;12.00;99.90;;;11.11;100.00;100125.06;4138807;28;20026;-71
2021/05/15 05:55:59;;;;;;;53.47;11.02;;;12.10;99.90;;;11.17;100.00;100141.22;4137321;28;20033;-71
2021/05/15 05:58:04;;;;;;;45.08;9.05;;;12.10;99.90;;;11.18;100.00;100127.00;4153467;28;20440;-70
2021/05/15 06:00:06;;;;;;;47.53;11.20;;;12.10;99.90;;;11.25;100.00;100131.41;4137300;28;20026;-70
2021/05/15 06:02:08;;;;;;;37.45;7.90;;;12.20;99.90;;;11.43;99.53;100131.13;4137408;28;20054;-70
2021/05/15 06:04:08;;;;;;;42.85;10.13;;;12.20;99.90;;;11.37;100.00;100137.13;4151322;28;20026;-70
2021/05/15 06:06:11;;;;;;;42.50;10.88;;;12.20;99.90;;;11.48;99.40;100128.78;4154853;28;20049;-70
2021/05/15 06:08:12;;;;;;;53.35;9.55;;;12.30;99.90;;;11.33;99.87;100141.09;4153559;28;20034;-70
2021/05/15 06:10:13;;;;;;;37.80;8.25;;;12.30;99.90;;;11.35;100.00;100133.84;4153340;28;20085;-70
2021/05/15 06:12:14;;;;;;;45.22;9.73;;;12.30;99.90;;;11.53;100.00;100139.63;4153438;28;20108;-70
2021/05/15 06:14:15;;;;;;;41.92;9.77;;;12.40;99.90;;;11.84;98.08;100137.75;4153137;28;20506;-70
2021/05/15 06:16:16;;;;;;;39.72;9.70;;;12.50;99.90;;;11.74;98.08;100125.81;4153237;28;20026;-70
2021/05/15 06:18:17;;;;;;;35.67;9.00;;;12.60;99.90;;;11.79;98.16;100136.66;4154409;28;20033;-70
2021/05/15 06:20:19;;;;;;;40.60;9.82;;;12.70;99.90;;;11.77;98.74;100141.31;4154278;28;20389;-70
2021/05/15 06:22:19;;;;;;;42.72;11.50;;;12.70;99.90;;;11.84;98.36;100139.56;4153029;28;20030;-70
2021/05/15 06:24:20;;;;;;;45.90;11.45;;;12.70;99.90;;;11.86;98.11;100135.75;4154317;28;20048;-70
2021/05/15 06:26:21;;;;;;;40.97;9.27;;;12.80;99.90;;;11.60;99.54;100143.22;4154381;28;20030;-70
2021/05/15 06:28:22;;;;;;;40.63;8.30;;;12.70;99.90;;;11.86;98.70;100153.41;4153821;28;20064;-70
2021/05/15 06:30:24;;;;;;;45.72;9.48;;;12.70;99.90;;;11.92;97.25;100142.97;4154320;28;20485;-70
2021/05/15 06:32:24;;;;;;;45.50;9.65;;;12.80;99.90;;;11.80;97.03;100131.19;4154192;28;20105;-70
2021/05/15 06:34:25;;;;;;;38.97;8.55;;;12.80;99.90;;;12.00;97.26;100144.72;4152891;28;20476;-70
2021/05/15 06:36:26;;;;;;;40.78;10.38;;;12.80;99.90;;;12.08;97.07;100149.91;4154180;28;20041;-70
2021/05/15 06:38:27;;;;;;;43.63;11.38;;;12.80;99.90;;;12.08;96.74;100129.59;4153948;28;20117;-70
2021/05/15 06:40:28;;;;;;;42.05;9.27;;;12.90;99.90;;;11.88;97.58;100127.66;4152809;28;20121;-71
2021/05/15 06:42:29;;;;;;;52.28;10.15;;;12.90;99.90;;;12.15;97.03;100127.88;4153087;28;20029;-70
2021/05/15 06:44:30;;;;;;;43.15;9.85;;;12.90;99.90;;;12.26;96.25;100141.66;4152521;28;20018;-70
2021/05/15 06:46:31;;;;;;;44.42;9.23;;;13.10;99.90;;;11.81;97.14;100146.03;4153849;28;20492;-70
2021/05/15 06:48:32;;;;;;;51.60;9.25;;;13.00;99.90;;;11.96;96.26;100133.69;4154173;28;20030;-70
2021/05/15 06:50:32;;;;;;;40.65;9.23;;;12.90;99.90;;;11.89;97.18;100132.75;4152722;28;20037;-70
2021/05/15 06:52:33;;;;;;;36.50;10.38;;;12.90;99.90;;;12.13;95.96;100145.72;4153936;28;20022;-70
2021/05/15 06:54:34;;;;;;;40.90;8.63;;;13.00;99.90;;;12.34;95.57;100150.31;4152623;28;20042;-70
2021/05/15 06:56:35;;;;;;;49.58;10.10;;;13.10;99.90;;;12.29;95.58;100154.50;4152707;28;20021;-70
2021/05/15 06:58:36;;;;;;;42.85;9.70;;;13.20;99.90;;;12.14;96.96;100157.97;4153585;28;20054;-70
2021/05/15 07:00:37;;;;;;;38.90;8.90;;;13.10;99.90;;;12.21;96.26;100153.56;4153749;28;20018;-70
2021/05/15 07:02:38;;;;;;;38.60;8.32;;;13.20;99.90;;;12.31;95.07;100142.75;4153345;28;20046;-70
2021/05/15 07:04:39;;;;;;;39.63;9.50;;;13.20;99.90;;;12.42;95.57;100150.25;4148935;28;20050;-70
2021/05/15 07:06:40;;;;;;;43.20;9.93;;;13.30;99.90;;;12.29;96.33;100159.78;4137546;28;20041;-70
2021/05/15 07:08:41;;;;;;;43.53;10.00;;;13.30;99.90;;;12.13;96.19;100158.94;4138576;28;20022;-70
2021/05/15 07:10:42;;;;;;;36.88;8.57;;;13.30;99.90;;;12.32;95.43;100154.13;4137933;28;20041;-71
2021/05/15 07:12:43;;;;;;;43.85;9.60;;;13.30;99.90;;;11.96;96.40;100148.72;4136008;28;20525;-70
2021/05/15 07:14:44;;;;;;;52.50;11.02;;;13.30;99.90;;;12.18;97.62;100153.94;4135856;28;20062;-70
2021/05/15 07:16:46;;;;;;;41.25;9.57;;;13.30;99.90;;;12.39;96.37;100150.59;4137190;28;20501;-70
2021/05/15 07:18:47;;;;;;;44.08;9.30;;;13.30;99.90;;;12.51;95.72;100157.09;4135696;28;20038;-70
2021/05/15 07:20:48;;;;;;;39.50;9.65;;;13.40;99.90;;;12.51;96.26;100148.31;4137283;28;20026;-70
2021/05/15 07:22:49;;;;;;;41.90;8.02;;;13.40;99.90;;;12.57;95.69;100168.75;4135973;28;20441;-70
2021/05/15 07:24:50;;;;;;;36.40;8.48;;;13.50;99.90;;;12.62;95.59;100176.97;4136999;28;20441;-71
2021/05/15 07:26:51;;;;;;;35.22;7.65;;;13.50;99.90;;;12.66;95.16;100162.38;4136952;28;20026;-71
2021/05/15 07:28:52;;;;;;;47.95;8.38;;;13.50;99.90;;;12.81;94.42;100165.00;4136895;28;20037;-71
2021/05/15 07:30:53;;;;;;;43.67;8.63;;;13.70;99.90;;;12.88;94.94;100174.66;4135802;28;20401;-70
2021/05/15 07:32:57;;;;;;;33.80;7.65;;;13.70;99.90;;;12.79;94.94;100167.81;4137023;28;20061;-71
2021/05/15 07:34:58;;;;;;;38.70;7.13;;;13.80;99.90;;;12.69;95.28;100156.72;4136996;28;20072;-71
2021/05/15 07:36:59;;;;;;;40.17;9.27;;;13.90;99.90;;;13.01;93.17;100166.06;4136936;28;20112;-71
2021/05/15 07:39:00;;;;;;;35.78;8.23;;;14.00;99.90;;;12.91;93.35;100162.88;4136697;28;20030;-71
2021/05/15 07:41:01;;;;;;;37.65;8.50;;;14.00;99.90;;;12.92;93.27;100161.88;4135094;28;20478;-71
2021/05/15 07:43:04;;;;;;;42.75;9.45;;;14.10;99.90;;;13.02;92.92;100157.91;4135424;28;20065;-71
2021/05/15 07:45:06;;;;;;;38.25;7.85;;;14.20;99.90;;;13.33;91.57;100157.69;4136762;28;20031;-71
2021/05/15 07:47:07;;;;;;;39.42;8.93;;;14.30;99.90;;;13.38;90.69;100151.84;4136760;28;20093;-71
2021/05/15 07:49:08;;;;;;;49.38;9.80;;;14.40;99.90;;;13.49;90.10;100148.69;4136638;28;20030;-70
2021/05/15 07:51:25;;;;;;;39.10;9.50;;;14.60;99.90;;;13.55;89.99;100145.28;4136827;28;20037;-71
2021/05/15 07:53:26;;;;;;;42.38;8.35;;;14.70;99.90;;;13.62;90.70;100143.53;4135538;28;20049;-71
2021/05/15 07:55:27;;;;;;;35.90;8.40;;;14.80;99.90;;;13.60;91.30;100153.47;4135371;28;20038;-71
2021/05/15 07:57:28;;;;;;;28.05;8.10;;;14.90;99.90;;;13.54;91.53;100155.06;4151641;28;20022;-71
2021/05/15 07:59:29;;;;;;;32.17;6.13;;;14.80;99.90;;;13.42;91.75;100153.09;4134993;28;20053;-71
2021/05/15 08:01:30;;;;;;;37.40;7.88;;;14.70;99.90;;;13.30;91.52;100150.94;4136577;28;20042;-71
2021/05/15 08:03:31;;;;;;;37.53;7.60;;;14.60;99.90;;;13.13;91.71;100154.84;4144205;28;20025;-71
2021/05/15 08:05:32;;;;;;;27.27;7.80;;;14.40;99.90;;;13.07;92.18;100158.19;4139479;28;20030;-71
2021/05/15 08:07:33;;;;;;;36.72;9.50;;;14.30;99.90;;;12.79;93.64;100157.22;4151460;28;20033;-71
2021/05/15 08:09:34;;;;;;;41.85;7.25;;;14.10;99.90;;;12.73;93.63;100163.25;4139545;28;20037;-71
2021/05/15 08:11:36;;;;;;;39.17;7.85;;;14.00;99.90;;;12.59;94.33;100151.69;4136445;28;20038;-70
2021/05/15 08:13:40;;;;;;;40.25;8.23;;;13.80;99.90;;;12.67;94.78;100164.00;4134848;28;20138;-71
2021/05/15 08:15:41;;;;;;;;;;;13.80;99.90;;;12.74;95.60;100168.38;4135480;28;20034;-70
2021/05/15 08:17:42;;;;;;;28.60;7.47;;;13.80;99.90;;;12.62;95.12;100147.84;4136290;28;19909;-70
2021/05/15 08:19:43;;;;;;;48.35;9.80;;;13.80;99.90;;;12.71;94.89;100157.34;4136361;28;20110;-70